createdAt,value
2018-05-07T00:01:44.364Z,101049.56
2018-05-07T00:04:16.621Z,101048.09
2018-05-07T00:06:46.822Z,101051.05
2018-05-07T00:09:17.650Z,101046.54
2018-05-07T00:11:47.906Z,101043.87
2018-05-07T00:14:19.168Z,101032.62
2018-05-07T00:16:50.019Z,101036.48
2018-05-07T00:19:20.739Z,101037.12
2018-05-07T00:21:51.618Z,101036.16
2018-05-07T00:24:22.419Z,101030.31
2018-05-07T00:26:53.537Z,101031.16
2018-05-07T00:29:23.399Z,101023.81
2018-05-07T00:31:54.583Z,101031.88
2018-05-07T00:34:25.057Z,101041.98
2018-05-07T00:36:56.112Z,101034.08
2018-05-07T00:39:27.111Z,101031.23
2018-05-07T00:41:58.088Z,101028.00
2018-05-07T00:44:29.129Z,101033.96
2018-05-07T00:46:59.995Z,101033.64
2018-05-07T00:49:31.022Z,101031.73
2018-05-07T00:52:02.071Z,101025.46
2018-05-07T00:54:33.134Z,101028.06
2018-05-07T00:57:04.939Z,101021.08
2018-05-07T00:59:35.698Z,101027.86
2018-05-07T01:02:05.880Z,101012.84
2018-05-07T01:04:36.706Z,101023.91
2018-05-07T01:07:07.538Z,101022.35
2018-05-07T01:09:38.451Z,101018.73
2018-05-07T01:12:09.541Z,101029.61
2018-05-07T01:14:40.046Z,101025.41
2018-05-07T01:17:10.859Z,101030.17
2018-05-07T01:19:41.623Z,101025.58
2018-05-07T01:22:12.554Z,101025.43
2018-05-07T01:24:43.390Z,101026.96
2018-05-07T01:27:14.540Z,101026.97
2018-05-07T01:29:45.354Z,101028.50
2018-05-07T01:32:16.506Z,101026.25
2018-05-07T01:34:47.482Z,101029.14
2018-05-07T01:37:18.461Z,101031.30
2018-05-07T01:39:49.444Z,101030.03
2018-05-07T01:42:20.444Z,101020.31
2018-05-07T01:44:51.533Z,101028.20
2018-05-07T01:47:22.540Z,101020.17
2018-05-07T01:49:53.442Z,101022.41
2018-05-07T01:52:24.602Z,101021.86
2018-05-07T01:54:55.465Z,101017.84
2018-05-07T01:57:26.541Z,101024.01
2018-05-07T01:59:57.450Z,101020.34
2018-05-07T02:02:28.487Z,101011.34
2018-05-07T02:04:59.280Z,101011.96
2018-05-07T02:07:30.084Z,101009.53
2018-05-07T02:10:00.855Z,101011.96
2018-05-07T02:12:31.170Z,101006.50
2018-05-07T02:15:02.743Z,101002.80
2018-05-07T02:17:33.583Z,101000.48
2018-05-07T02:20:04.538Z,101008.92
2018-05-07T02:22:35.585Z,100999.91
2018-05-07T02:25:06.050Z,101005.56
2018-05-07T02:27:36.937Z,101006.73
2018-05-07T02:30:07.714Z,101007.97
2018-05-07T02:32:37.822Z,101007.07
2018-05-07T02:35:08.635Z,101011.36
2018-05-07T02:37:39.478Z,101013.53
2018-05-07T02:40:10.603Z,101018.25
2018-05-07T02:42:41.622Z,101006.08
2018-05-07T02:45:12.446Z,101007.75
2018-05-07T02:47:43.640Z,101003.19
2018-05-07T02:50:14.440Z,101002.83
2018-05-07T02:52:45.608Z,101010.35
2018-05-07T02:55:16.463Z,101007.54
2018-05-07T02:57:47.638Z,101002.50
2018-05-07T03:00:18.083Z,101006.74
2018-05-07T03:02:48.872Z,101009.59
2018-05-07T03:05:19.837Z,101010.00
2018-05-07T03:07:50.647Z,101014.95
2018-05-07T03:10:21.476Z,101011.62
2018-05-07T03:12:52.692Z,101005.84
2018-05-07T03:15:23.551Z,101015.39
2018-05-07T03:17:54.565Z,101012.07
2018-05-07T03:20:25.409Z,101009.68
2018-05-07T03:22:56.583Z,101013.88
2018-05-07T03:25:27.472Z,101007.09
2018-05-07T03:27:58.179Z,101010.28
2018-05-07T03:30:30.049Z,101003.84
2018-05-07T03:33:00.028Z,101008.44
2018-05-07T03:35:30.973Z,101005.97
2018-05-07T03:38:01.097Z,101007.44
2018-05-07T03:40:31.809Z,101004.91
2018-05-07T03:43:02.661Z,101006.84
2018-05-07T03:45:33.167Z,101005.59
2018-05-07T03:48:03.766Z,101003.02
2018-05-07T03:50:34.572Z,100998.62
2018-05-07T03:53:05.561Z,100998.19
2018-05-07T03:55:37.019Z,101000.44
2018-05-07T03:58:08.538Z,100998.77
2018-05-07T04:00:39.205Z,101003.13
2018-05-07T04:03:09.899Z,101002.73
2018-05-07T04:05:40.737Z,101002.23
2018-05-07T04:08:11.631Z,101005.23
2018-05-07T04:10:42.452Z,101000.80
2018-05-07T04:13:13.616Z,101001.08
2018-05-07T04:15:44.551Z,101004.36
2018-05-07T04:18:26.500Z,101003.20
2018-05-07T04:21:06.955Z,101002.87
2018-05-07T04:23:46.883Z,101001.25
2018-05-07T04:26:16.649Z,100993.31
2018-05-07T04:28:45.968Z,100994.11
2018-05-07T04:31:15.530Z,100987.85
2018-05-07T04:33:44.882Z,100998.70
2018-05-07T04:36:13.903Z,100993.84
2018-05-07T04:38:43.176Z,100994.20
2018-05-07T04:41:12.186Z,100991.09
2018-05-07T04:43:41.280Z,100988.80
2018-05-07T04:46:10.907Z,100995.28
2018-05-07T04:48:39.909Z,100999.22
2018-05-07T04:51:09.227Z,101002.59
2018-05-07T04:53:38.624Z,100994.02
2018-05-07T04:56:07.610Z,101000.95
2018-05-07T04:58:36.842Z,101001.66
2018-05-07T05:01:05.933Z,101009.94
2018-05-07T05:03:35.293Z,101009.73
2018-05-07T05:06:04.801Z,101009.97
2018-05-07T05:08:33.928Z,101015.47
2018-05-07T05:11:04.800Z,101012.22
2018-05-07T05:16:18.115Z,101014.53
2018-05-07T05:18:47.662Z,101012.71
2018-05-07T05:21:16.647Z,101012.06
2018-05-07T05:23:46.656Z,101009.33
2018-05-07T05:26:15.658Z,101009.06
2018-05-07T05:28:44.573Z,101006.33
2018-05-07T05:31:13.602Z,101004.14
2018-05-07T05:33:43.956Z,101006.37
2018-05-07T05:36:14.689Z,101010.39
2018-05-07T05:38:45.375Z,101020.34
2018-05-07T05:41:16.601Z,101010.17
2018-05-07T05:43:47.724Z,101012.56
2018-05-07T05:46:18.670Z,101019.50
2018-05-07T05:48:49.184Z,101017.27
2018-05-07T05:51:20.667Z,101012.95
2018-05-07T05:53:51.297Z,101013.16
2018-05-07T05:56:22.058Z,101020.03
2018-05-07T05:58:53.210Z,101018.52
2018-05-07T06:01:23.687Z,101011.92
2018-05-07T06:03:54.487Z,101008.66
2018-05-07T06:06:25.702Z,101010.23
2018-05-07T06:08:56.434Z,101009.70
2018-05-07T06:11:27.430Z,101011.41
2018-05-07T06:13:58.397Z,101007.89
2018-05-07T06:16:29.405Z,101008.48
2018-05-07T06:19:00.393Z,101010.45
2018-05-07T06:21:31.494Z,101004.72
2018-05-07T06:24:02.387Z,101000.55
2018-05-07T06:26:33.382Z,101000.48
2018-05-07T06:29:04.419Z,100993.53
2018-05-07T06:31:35.177Z,100998.51
2018-05-07T06:34:05.891Z,101001.84
2018-05-07T06:36:36.707Z,101001.49
2018-05-07T06:39:07.805Z,101002.59
2018-05-07T06:41:38.535Z,101000.94
2018-05-07T06:44:09.393Z,101003.86
2018-05-07T06:46:40.415Z,101005.95
2018-05-07T06:49:11.402Z,101012.39
2018-05-07T06:51:42.062Z,101008.28
2018-05-07T06:54:13.756Z,101005.78
2018-05-07T06:56:44.527Z,101006.86
2018-05-07T06:59:14.878Z,101007.00
2018-05-07T07:01:45.643Z,101008.33
2018-05-07T07:04:16.302Z,100996.85
2018-05-07T07:06:47.400Z,100998.30
2018-05-07T07:09:18.425Z,101004.60
2018-05-07T07:11:49.437Z,100997.14
2018-05-07T07:14:20.374Z,100994.38
2018-05-07T07:16:51.382Z,100995.72
2018-05-07T07:19:21.938Z,100991.22
2018-05-07T07:21:52.547Z,100993.32
2018-05-07T07:24:23.343Z,100996.03
2018-05-07T07:26:54.462Z,100994.88
2018-05-07T07:29:24.280Z,100996.97
2018-05-07T07:31:55.320Z,100993.20
2018-05-07T07:34:26.047Z,100989.66
2018-05-07T07:36:57.017Z,100983.02
2018-05-07T07:39:27.980Z,100982.45
2018-05-07T07:41:59.198Z,100974.45
2018-05-07T07:44:30.151Z,100976.37
2018-05-07T07:47:00.978Z,100981.52
2018-05-07T07:49:31.917Z,100968.84
2018-05-07T07:52:02.955Z,100980.59
2018-05-07T07:54:33.937Z,100980.59
2018-05-07T07:57:05.024Z,100978.63
2018-05-07T07:59:35.935Z,100974.86
2018-05-07T08:02:07.011Z,100970.98
2018-05-07T08:04:37.913Z,100972.54
2018-05-07T08:07:08.942Z,100976.56
2018-05-07T08:09:39.917Z,100971.50
2018-05-07T08:12:10.984Z,100976.36
2018-05-07T08:14:41.967Z,100973.83
2018-05-07T08:17:12.995Z,100974.96
2018-05-07T08:19:44.005Z,100970.52
2018-05-07T08:22:14.962Z,100974.17
2018-05-07T08:24:46.017Z,100967.45
2018-05-07T08:27:17.734Z,100966.80
2018-05-07T08:29:48.410Z,100968.11
2018-05-07T08:32:19.454Z,100957.44
2018-05-07T08:34:50.155Z,100959.90
2018-05-07T08:37:21.705Z,100961.19
2018-05-07T08:39:52.411Z,100960.80
2018-05-07T08:42:23.424Z,100959.72
2018-05-07T08:44:54.392Z,100961.02
2018-05-07T08:47:25.408Z,100962.20
2018-05-07T08:49:56.354Z,100955.05
2018-05-07T08:52:27.350Z,100963.83
2018-05-07T08:54:58.420Z,100957.94
2018-05-07T08:57:29.493Z,100959.39
2018-05-07T09:00:00.364Z,100956.07
2018-05-07T09:02:31.015Z,100961.02
2018-05-07T09:05:01.692Z,100956.47
2018-05-07T09:07:32.532Z,100961.14
2018-05-07T09:10:03.456Z,100954.83
2018-05-07T09:12:34.399Z,100949.62
2018-05-07T09:15:05.343Z,100947.25
2018-05-07T09:17:36.768Z,100949.23
2018-05-07T09:20:07.537Z,100940.06
2018-05-07T09:22:38.465Z,100933.70
2018-05-07T09:25:09.391Z,100925.70
2018-05-07T09:27:40.358Z,100927.75
2018-05-07T09:30:11.332Z,100919.38
2018-05-07T09:32:42.422Z,100930.48
2018-05-07T09:35:13.376Z,100924.84
2018-05-07T09:37:44.427Z,100925.02
2018-05-07T09:40:15.281Z,100926.15
2018-05-07T09:42:46.438Z,100917.57
2018-05-07T09:45:17.447Z,100916.50
2018-05-07T09:47:47.950Z,100910.38
2018-05-07T09:50:18.675Z,100903.19
2018-05-07T09:52:49.433Z,100897.35
2018-05-07T09:55:20.337Z,100905.51
2018-05-07T09:58:01.771Z,100896.42
2018-05-07T10:00:36.173Z,100898.68
2018-05-07T10:03:05.662Z,100894.94
2018-05-07T10:05:34.840Z,100893.64
2018-05-07T10:08:03.811Z,100887.32
2018-05-07T10:10:32.865Z,100891.20
2018-05-07T10:13:01.819Z,100893.28
2018-05-07T10:15:30.776Z,100895.09
2018-05-07T10:18:00.135Z,100882.91
2018-05-07T10:20:29.114Z,100884.63
2018-05-07T10:22:58.835Z,100881.03
2018-05-07T10:25:29.504Z,100881.69
2018-05-07T10:27:59.877Z,100877.37
2018-05-07T10:30:30.588Z,100872.89
2018-05-07T10:33:01.473Z,100873.06
2018-05-07T10:35:32.433Z,100876.97
2018-05-07T10:38:03.361Z,100875.98
2018-05-07T10:40:34.330Z,100875.14
2018-05-07T10:43:05.397Z,100875.43
2018-05-07T10:45:36.331Z,100869.56
2018-05-07T10:48:06.913Z,100865.66
2018-05-07T10:50:37.667Z,100861.99
2018-05-07T10:53:08.466Z,100864.05
2018-05-07T10:55:39.547Z,100859.80
2018-05-07T10:58:10.722Z,100852.84
2018-05-07T11:00:41.438Z,100851.09
2018-05-07T11:03:12.384Z,100849.75
2018-05-07T11:05:43.375Z,100849.61
2018-05-07T11:08:14.279Z,100836.11
2018-05-07T11:10:44.937Z,100840.89
2018-05-07T11:13:15.624Z,100830.30
2018-05-07T11:15:45.712Z,100829.20
2018-05-07T11:18:16.436Z,100830.52
2018-05-07T11:20:47.765Z,100832.50
2018-05-07T11:23:18.452Z,100818.52
2018-05-07T11:25:49.443Z,100819.33
2018-05-07T11:28:20.351Z,100818.05
2018-05-07T11:30:51.344Z,100822.27
2018-05-07T11:33:21.888Z,100809.33
2018-05-07T11:35:52.644Z,100804.72
2018-05-07T11:38:23.343Z,100803.94
2018-05-07T11:40:54.399Z,100809.11
2018-05-07T11:43:24.927Z,100811.19
2018-05-07T11:45:55.618Z,100801.50
2018-05-07T11:48:26.334Z,100804.91
2018-05-07T11:50:57.445Z,100795.88
2018-05-07T11:53:28.300Z,100795.98
2018-05-07T11:55:59.670Z,100793.84
2018-05-07T11:58:30.388Z,100796.27
2018-05-07T12:01:01.452Z,100787.81
2018-05-07T12:03:32.319Z,100776.48
2018-05-07T12:06:03.429Z,100781.69
2018-05-07T12:08:34.288Z,100772.25
2018-05-07T12:11:05.418Z,100766.11
2018-05-07T12:13:36.380Z,100769.15
2018-05-07T12:16:07.411Z,100765.22
2018-05-07T12:18:38.357Z,100762.41
2018-05-07T12:21:09.194Z,100762.70
2018-05-07T12:23:39.975Z,100760.16
2018-05-07T12:26:10.686Z,100758.36
2018-05-07T12:28:41.401Z,100759.90
2018-05-07T12:31:13.041Z,100752.73
2018-05-07T12:33:43.815Z,100745.86
2018-05-07T12:36:14.476Z,100746.47
2018-05-07T12:38:45.267Z,100734.47
2018-05-07T12:41:16.639Z,100745.01
2018-05-07T12:43:47.228Z,100741.34
2018-05-07T12:46:18.509Z,100730.44
2018-05-07T12:48:49.289Z,100735.52
2018-05-07T12:51:20.352Z,100726.25
2018-05-07T12:53:51.358Z,100717.69
2018-05-07T12:56:22.541Z,100720.80
2018-05-07T12:58:53.313Z,100717.07
2018-05-07T13:01:24.557Z,100707.08
2018-05-07T13:03:55.291Z,100704.03
2018-05-07T13:06:26.441Z,100705.55
2018-05-07T13:08:57.306Z,100705.06
2018-05-07T13:11:28.509Z,100696.64
2018-05-07T13:13:59.381Z,100695.66
2018-05-07T13:16:30.390Z,100693.20
2018-05-07T13:19:00.924Z,100683.80
2018-05-07T13:21:31.661Z,100682.95
2018-05-07T13:24:02.344Z,100679.66
2018-05-07T13:26:33.437Z,100674.84
2018-05-07T13:29:04.367Z,100683.56
2018-05-07T13:31:35.114Z,100672.05
2018-05-07T13:34:05.779Z,100672.46
2018-05-07T13:36:36.540Z,100666.30
2018-05-07T13:39:07.163Z,100675.23
2018-05-07T13:41:38.738Z,100665.88
2018-05-07T13:44:09.429Z,100666.78
2018-05-07T13:46:40.574Z,100672.76
2018-05-07T13:49:11.335Z,100661.50
2018-05-07T13:51:42.424Z,100665.14
2018-05-07T13:54:13.031Z,100654.58
2018-05-07T13:56:44.782Z,100654.16
2018-05-07T13:59:15.495Z,100659.84
2018-05-07T14:01:46.633Z,100651.80
2018-05-07T14:04:17.287Z,100646.91
2018-05-07T14:06:48.761Z,100649.52
2018-05-07T14:09:19.444Z,100648.52
2018-05-07T14:11:50.383Z,100643.80
2018-05-07T14:14:20.962Z,100651.66
2018-05-07T14:16:51.553Z,100646.15
2018-05-07T14:19:22.342Z,100638.39
2018-05-07T14:21:53.350Z,100637.63
2018-05-07T14:24:24.397Z,100632.91
2018-05-07T14:26:55.412Z,100628.70
2018-05-07T14:29:26.279Z,100626.63
2018-05-07T14:31:58.999Z,100624.89
2018-05-07T14:34:28.808Z,100624.75
2018-05-07T14:36:59.505Z,100623.63
2018-05-07T14:39:30.010Z,100620.31
2018-05-07T14:42:00.699Z,100617.74
2018-05-07T14:44:30.634Z,100622.08
2018-05-07T14:47:01.435Z,100613.90
2018-05-07T14:49:32.284Z,100602.34
2018-05-07T14:52:03.431Z,100597.55
2018-05-07T14:54:34.292Z,100596.08
2018-05-07T14:57:04.960Z,100597.34
2018-05-07T14:59:36.768Z,100594.19
2018-05-07T15:02:07.075Z,100590.95
2018-05-07T15:04:37.855Z,100592.27
2018-05-07T15:07:08.570Z,100591.72
2018-05-07T15:09:39.287Z,100583.10
2018-05-07T15:12:10.474Z,100585.08
2018-05-07T15:14:41.342Z,100578.86
2018-05-07T15:17:12.500Z,100574.86
2018-05-07T15:19:43.535Z,100578.72
2018-05-07T15:22:14.422Z,100574.73
2018-05-07T15:24:49.068Z,100574.20
2018-05-07T15:27:18.100Z,100568.44
2018-05-07T15:29:47.367Z,100569.77
2018-05-07T15:32:18.075Z,100578.59
2018-05-07T15:34:48.720Z,100568.95
2018-05-07T15:37:18.724Z,100565.72
2018-05-07T15:39:49.386Z,100570.52
2018-05-07T15:42:20.394Z,100564.23
2018-05-07T15:44:51.369Z,100565.73
2018-05-07T15:47:22.385Z,100563.85
2018-05-07T15:49:53.382Z,100562.38
2018-05-07T15:52:24.088Z,100556.61
2018-05-07T15:54:55.048Z,100550.16
2018-05-07T15:57:25.869Z,100547.62
2018-05-07T15:59:56.530Z,100552.41
2018-05-07T16:02:27.525Z,100547.59
2018-05-07T16:04:57.978Z,100547.54
2018-05-07T16:07:28.793Z,100551.66
2018-05-07T16:09:59.462Z,100551.52
2018-05-07T16:12:30.391Z,100541.92
2018-05-07T16:15:01.518Z,100545.34
2018-05-07T16:17:31.696Z,100541.50
2018-05-07T16:20:02.436Z,100540.25
2018-05-07T16:22:34.092Z,100539.07
2018-05-07T16:25:03.951Z,100543.84
2018-05-07T16:27:35.683Z,100541.97
2018-05-07T16:30:05.955Z,100541.06
2018-05-07T16:32:41.130Z,100544.06
2018-05-07T16:35:10.108Z,100541.19
2018-05-07T16:37:40.093Z,100542.03
2018-05-07T16:40:10.916Z,100536.79
2018-05-07T16:42:41.526Z,100539.91
2018-05-07T16:45:12.630Z,100534.14
2018-05-07T16:47:43.463Z,100536.63
2018-05-07T16:50:13.898Z,100531.90
2018-05-07T16:52:44.481Z,100534.02
2018-05-07T16:55:15.420Z,100525.23
2018-05-07T16:57:46.512Z,100527.91
2018-05-07T17:00:17.392Z,100530.25
2018-05-07T17:02:48.338Z,100524.81
2018-05-07T17:05:19.375Z,100535.72
2018-05-07T17:07:50.370Z,100527.63
2018-05-07T17:10:21.359Z,100527.29
2018-05-07T17:12:52.482Z,100531.99
2018-05-07T17:15:23.317Z,100538.09
2018-05-07T17:17:54.467Z,100536.56
2018-05-07T17:20:25.352Z,100498.29
2018-05-07T17:22:56.422Z,100537.33
2018-05-07T17:25:27.368Z,100536.14
2018-05-07T17:27:58.369Z,100532.27
2018-05-07T17:30:29.374Z,100534.72
2018-05-07T17:33:00.422Z,100536.15
2018-05-07T17:35:31.562Z,100537.29
2018-05-07T17:38:02.332Z,100539.27
2018-05-07T17:40:32.953Z,100536.59
2018-05-07T17:43:03.632Z,100539.38
2018-05-07T17:45:45.346Z,100536.12
2018-05-07T17:48:25.260Z,100538.86
2018-05-07T17:50:54.264Z,100537.31
2018-05-07T17:53:23.811Z,100540.81
2018-05-07T17:55:52.791Z,100533.45
2018-05-07T17:58:22.026Z,100527.26
2018-05-07T18:00:52.271Z,100536.34
2018-05-07T18:03:22.206Z,100537.08
2018-05-07T18:05:51.942Z,100533.67
2018-05-07T18:08:21.387Z,100539.55
2018-05-07T18:10:50.586Z,100534.22
2018-05-07T18:13:19.846Z,100537.83
2018-05-07T18:15:48.815Z,100538.48
2018-05-07T18:18:17.927Z,100538.58
2018-05-07T18:20:48.026Z,100542.09
2018-05-07T18:23:18.815Z,100539.61
2018-05-07T18:25:49.268Z,100541.59
2018-05-07T18:28:20.264Z,100538.61
2018-05-07T18:30:51.451Z,100537.41
2018-05-07T18:33:22.318Z,100540.69
2018-05-07T18:35:53.445Z,100547.90
2018-05-07T18:38:24.283Z,100549.61
2018-05-07T18:40:56.124Z,100548.31
2018-05-07T18:43:26.821Z,100553.80
2018-05-07T18:45:57.642Z,100545.53
2018-05-07T18:48:28.359Z,100549.23
2018-05-07T18:50:59.648Z,100546.57
2018-05-07T18:53:30.412Z,100544.58
2018-05-07T18:56:01.811Z,100552.34
2018-05-07T18:58:32.735Z,100553.95
2018-05-07T19:01:03.592Z,100552.22
2018-05-07T19:03:34.443Z,100552.80
2018-05-07T19:06:05.455Z,100547.86
2018-05-07T19:08:34.970Z,100550.00
2018-05-07T19:11:06.169Z,100553.77
2018-05-07T19:13:37.050Z,100552.13
2018-05-07T19:16:08.349Z,100559.52
2018-05-07T19:18:39.500Z,100545.56
2018-05-07T19:21:10.457Z,100554.09
2018-05-07T19:23:41.516Z,100555.27
2018-05-07T19:26:12.374Z,100560.59
2018-05-07T19:28:43.800Z,100555.85
2018-05-07T19:31:14.436Z,100552.05
2018-05-07T19:33:45.128Z,100553.30
2018-05-07T19:36:15.762Z,100551.77
2018-05-07T19:38:46.609Z,100546.49
2018-05-07T19:41:16.742Z,100545.69
2018-05-07T19:43:47.816Z,100543.86
2018-05-07T19:46:18.582Z,100540.44
2018-05-07T19:48:49.880Z,100538.48
2018-05-07T19:51:20.586Z,100538.09
2018-05-07T19:53:51.514Z,100542.30
2018-05-07T19:56:22.388Z,100542.42
2018-05-07T19:58:53.428Z,100539.61
2018-05-07T20:01:24.436Z,100538.80
2018-05-07T20:03:55.447Z,100540.16
2018-05-07T20:06:25.936Z,100534.38
2018-05-07T20:08:56.697Z,100533.88
2018-05-07T20:11:27.371Z,100533.69
2018-05-07T20:13:58.443Z,100535.23
2018-05-07T20:16:29.351Z,100534.00
2018-05-07T20:19:00.471Z,100533.19
2018-05-07T20:21:31.394Z,100539.42
2018-05-07T20:24:01.969Z,100534.56
2018-05-07T20:26:32.625Z,100533.33
2018-05-07T20:29:03.523Z,100537.88
2018-05-07T20:31:34.654Z,100530.94
2018-05-07T20:34:04.767Z,100541.31
2018-05-07T20:36:35.495Z,100540.48
2018-05-07T20:39:07.028Z,100540.80
2018-05-07T20:41:38.330Z,100543.15
2018-05-07T20:44:08.965Z,100543.07
2018-05-07T20:46:39.798Z,100536.28
2018-05-07T20:49:10.531Z,100533.73
2018-05-07T20:51:41.434Z,100541.52
2018-05-07T20:54:12.012Z,100542.34
2018-05-07T20:56:42.806Z,100534.08
2018-05-07T20:59:13.493Z,100541.36
2018-05-07T21:01:44.382Z,100536.32
2018-05-07T21:04:15.364Z,100539.73
2018-05-07T21:06:46.632Z,100532.84
2018-05-07T21:09:17.382Z,100529.04
2018-05-07T21:11:48.446Z,100531.16
2018-05-07T21:14:19.137Z,100530.52
2018-05-07T21:16:49.735Z,100524.45
2018-05-07T21:19:20.526Z,100522.81
2018-05-07T21:21:51.526Z,100522.34
2018-05-07T21:24:22.406Z,100520.11
2018-05-07T21:26:53.390Z,100528.39
2018-05-07T21:29:24.498Z,100526.41
2018-05-07T21:31:56.424Z,100522.83
2018-05-07T21:34:26.953Z,100524.78
2018-05-07T21:36:57.682Z,100518.30
2018-05-07T21:39:28.418Z,100524.00
2018-05-07T21:41:59.481Z,100522.07
2018-05-07T21:44:30.338Z,100512.88
2018-05-07T21:47:01.372Z,100514.76
2018-05-07T21:49:32.410Z,100515.02
2018-05-07T21:52:03.448Z,100513.58
2018-05-07T21:54:34.430Z,100517.00
2018-05-07T21:57:05.486Z,100517.26
2018-05-07T21:59:36.394Z,100517.91
2018-05-07T22:02:07.081Z,100518.45
2018-05-07T22:04:37.762Z,100523.10
2018-05-07T22:07:08.394Z,100521.09
2018-05-07T22:09:39.361Z,100517.40
2018-05-07T22:12:10.452Z,100520.81
2018-05-07T22:14:41.447Z,100514.01
2018-05-07T22:17:12.421Z,100516.18
2018-05-07T22:19:43.434Z,100513.32
2018-05-07T22:22:14.472Z,100515.72
2018-05-07T22:24:45.097Z,100507.86
2018-05-07T22:27:16.698Z,100507.25
2018-05-07T22:29:47.450Z,100508.08
2018-05-07T22:32:18.397Z,100511.48
2018-05-07T22:34:49.359Z,100503.11
2018-05-07T22:37:20.463Z,100508.33
2018-05-07T22:39:51.350Z,100501.42
2018-05-07T22:42:22.502Z,100508.83
2018-05-07T22:44:53.351Z,100503.38
2018-05-07T22:47:24.408Z,100509.34
2018-05-07T22:49:55.334Z,100498.36
2018-05-07T22:52:26.445Z,100511.92
2018-05-07T22:55:05.317Z,100507.71
2018-05-07T22:57:34.435Z,100519.80
2018-05-07T23:00:03.398Z,100518.25
2018-05-07T23:02:32.501Z,100517.20
2018-05-07T23:05:01.754Z,100515.56
2018-05-07T23:07:31.706Z,100518.23
2018-05-07T23:10:02.521Z,100517.34
2018-05-07T23:12:33.191Z,100506.41
2018-05-07T23:15:03.703Z,100502.52
2018-05-07T23:17:34.395Z,100504.47
2018-05-07T23:20:05.112Z,100502.01
2018-05-07T23:22:36.634Z,100497.95
2018-05-07T23:25:07.429Z,100494.22
2018-05-07T23:27:38.326Z,100496.25
2018-05-07T23:30:09.367Z,100504.27
2018-05-07T23:32:43.335Z,100497.71
2018-05-07T23:35:12.386Z,100488.81
2018-05-07T23:37:42.990Z,100505.92
2018-05-07T23:40:13.754Z,100497.69
2018-05-07T23:42:44.433Z,100497.38
2018-05-07T23:45:15.084Z,100495.39
2018-05-07T23:47:46.664Z,100494.98
2018-05-07T23:50:17.456Z,100494.17
2018-05-07T23:52:48.722Z,100487.19
2018-05-07T23:55:18.754Z,100486.44
2018-05-07T23:57:49.465Z,100487.91
